KHFF/HFF METAR and TAF weather

Enter ICAO airport designator
Station Type Date Time Source
KHFF METAR 2021/05/12 01:56 UTC NOAA

KHFF 120156Z AUTO 00000KT 10SM FEW120 16/14 A3011 RMK AO2 SLP211 T01620142 $


Station Type Date Time Source
KHFF Decoded METAR 2021/05/12 01:56 UTC NOAA

Mackall U. S. Army Airfield, NC, United States (KHFF) 35-02N 079-30W
May 11, 2021 - 09:56 PM EDT / 2021.05.12 0156 UTC
Wind: Calm:0
Visibility: 10 mile(s):0
Sky conditions: mostly clear
Temperature: 61.2 F (16.2 C)
Dew Point: 57.6 F (14.2 C)
Relative Humidity: 87%
Pressure (altimeter): 30.11 in. Hg (1019 hPa)
ob: KHFF 120156Z AUTO 00000KT 10SM FEW120 16/14 A3011 RMK AO2 SLP211 T01620142
cycle: 2

Station Type Date Time Source
KHFF TAF UTC NOAA

Error!

Example: see airport list